Time;durP1;ratioP1;P1;durP2;ratioP2;P2;SDS_P1;SDS_P2;PMS_P1;PMS_P2;Temp;Humidity;BMP_temperature;BMP_pressure;BME280_temperature;BME280_humidity;BME280_pressure;Samples;Min_cycle;Max_cycle;Signal;HPM_P1;HPM_P2
2022/08/19 00:01:19;;;;;;;6.97;6.32;;;15.50;99.90;;;;;;5023710;28;20047;-75
2022/08/19 00:03:45;;;;;;;9.20;7.78;;;15.40;99.90;;;;;;5046991;28;20045;-75
2022/08/19 00:06:11;;;;;;;9.10;7.22;;;15.40;99.90;;;;;;5043128;28;20033;-75
2022/08/19 00:08:36;;;;;;;17.92;8.13;;;15.10;99.90;;;;;;5046852;28;20041;-75
2022/08/19 00:11:02;;;;;;;9.07;6.65;;;15.30;99.90;;;;;;5029723;28;20055;-75
2022/08/19 00:13:28;;;;;;;8.35;6.72;;;15.30;99.90;;;;;;5044752;28;20048;-75
2022/08/19 00:15:55;;;;;;;9.25;8.07;;;15.40;99.90;;;;;;5042529;28;20068;-75
2022/08/19 00:18:21;;;;;;;8.30;7.05;;;15.40;99.90;;;;;;5047983;28;20037;-74
2022/08/19 00:20:47;;;;;;;9.18;7.00;;;15.30;99.90;;;;;;5027888;28;20045;-75
2022/08/19 00:23:12;;;;;;;7.43;6.72;;;15.30;99.90;;;;;;5045295;28;20159;-76
2022/08/19 00:25:38;;;;;;;7.97;6.78;;;15.30;99.90;;;;;;5045669;28;20040;-76
2022/08/19 00:28:04;;;;;;;8.18;6.10;;;15.30;99.90;;;;;;5028494;28;20034;-75
2022/08/19 00:30:30;;;;;;;8.27;7.03;;;15.10;99.90;;;;;;5041982;28;20051;-75
2022/08/19 00:32:57;;;;;;;8.88;7.03;;;15.10;99.90;;;;;;5043953;28;20033;-76
2022/08/19 00:35:23;;;;;;;9.85;7.45;;;15.00;99.90;;;;;;5045967;28;20045;-75
2022/08/19 00:37:49;;;;;;;11.93;8.48;;;15.00;99.90;;;;;;5045598;28;20136;-75
2022/08/19 00:40:19;;;;;;;11.77;6.68;;;15.00;99.90;;;;;;5046143;28;20041;-75
2022/08/19 00:42:45;;;;;;;10.95;6.72;;;15.10;99.90;;;;;;5029022;28;20124;-76
2022/08/19 00:45:16;;;;;;;9.43;7.07;;;15.10;99.90;;;;;;5044628;28;20056;-75
2022/08/19 00:47:42;;;;;;;8.25;6.43;;;15.20;99.90;;;;;;5046606;28;20542;-75
2022/08/19 00:50:09;;;;;;;8.57;7.45;;;15.00;99.90;;;;;;5044844;28;20045;-75
2022/08/19 00:52:38;;;;;;;8.68;7.55;;;14.80;99.90;;;;;;5045185;28;20072;-76
2022/08/19 00:55:10;;;;;;;7.73;6.97;;;14.80;99.90;;;;;;5027428;28;20395;-75
2022/08/19 00:57:40;;;;;;;8.75;7.72;;;14.90;99.90;;;;;;5028272;28;20122;-76
2022/08/19 01:00:09;;;;;;;;;;;15.00;99.90;;;;;;5044949;28;20048;-76
2022/08/19 01:02:35;;;;;;;8.57;7.75;;;14.90;99.90;;;;;;5045238;28;19928;-76
2022/08/19 01:05:04;;;;;;;8.95;7.90;;;14.90;99.90;;;;;;5042517;28;20048;-76
2022/08/19 01:07:30;;;;;;;11.67;9.37;;;14.80;99.90;;;;;;5046250;28;20047;-75
2022/08/19 01:09:56;;;;;;;9.88;8.35;;;14.90;99.90;;;;;;5024556;28;20808;-76
2022/08/19 01:12:22;;;;;;;8.80;7.97;;;14.90;99.90;;;;;;5044530;28;20053;-75
2022/08/19 01:14:48;;;;;;;9.13;7.45;;;14.70;99.90;;;;;;5041863;28;20048;-75
2022/08/19 01:17:15;;;;;;;10.40;8.13;;;14.70;99.90;;;;;;5046384;28;20056;-74
2022/08/19 01:19:43;;;;;;;10.32;7.88;;;14.70;99.90;;;;;;5045441;28;20036;-75
2022/08/19 01:22:15;;;;;;;12.27;8.20;;;14.60;99.90;;;;;;5043044;28;20064;-75
2022/08/19 01:24:40;;;;;;;10.52;8.75;;;14.70;99.90;;;;;;5025999;28;20499;-75
2022/08/19 01:27:07;;;;;;;8.88;8.02;;;14.70;99.90;;;;;;5020584;28;20056;-76
2022/08/19 01:29:34;;;;;;;13.38;9.13;;;14.80;99.90;;;;;;5044996;28;20037;-76
2022/08/19 01:32:01;;;;;;;9.80;8.90;;;14.90;99.90;;;;;;5045261;28;20077;-76
2022/08/19 01:34:26;;;;;;;14.25;9.65;;;14.80;99.90;;;;;;5044927;28;20146;-76
2022/08/19 01:36:52;;;;;;;13.07;8.77;;;14.60;99.90;;;;;;5042886;28;20466;-76
2022/08/19 01:39:23;;;;;;;11.90;8.57;;;14.60;99.90;;;;;;5045522;28;20041;-75
2022/08/19 01:41:49;;;;;;;21.38;9.98;;;14.70;99.90;;;;;;5046200;28;20139;-76
2022/08/19 01:44:15;;;;;;;10.10;8.85;;;14.70;99.90;;;;;;5030595;28;20120;-75
2022/08/19 01:46:43;;;;;;;12.88;8.75;;;14.80;99.90;;;;;;5043807;28;20512;-76
2022/08/19 01:49:09;;;;;;;15.45;9.38;;;14.70;99.90;;;;;;5045781;28;20407;-75
2022/08/19 01:51:36;;;;;;;10.82;8.75;;;14.70;99.90;;;;;;5053376;22;20057;-75
2022/08/19 01:54:02;;;;;;;12.05;9.32;;;14.70;99.90;;;;;;5041298;28;20136;-75
2022/08/19 01:56:28;;;;;;;8.93;8.00;;;14.80;99.90;;;;;;5062869;28;20127;-75
2022/08/19 01:59:09;;;;;;;12.30;9.90;;;14.80;99.90;;;;;;5047851;28;20141;-75
2022/08/19 02:01:35;;;;;;;10.57;8.93;;;14.70;99.90;;;;;;5064681;28;20159;-75
2022/08/19 02:04:02;;;;;;;9.98;8.98;;;14.80;99.90;;;;;;5060420;28;20127;-75
2022/08/19 02:06:28;;;;;;;11.15;8.93;;;14.80;99.90;;;;;;5061851;28;20051;-75
2022/08/19 02:08:54;;;;;;;9.15;8.30;;;14.80;99.90;;;;;;5063750;28;20391;-76
2022/08/19 02:11:25;;;;;;;10.18;8.52;;;14.70;99.90;;;;;;5063774;28;20075;-75
2022/08/19 02:13:50;;;;;;;10.75;8.48;;;14.90;99.90;;;;;;5064961;28;20037;-75
2022/08/19 02:16:18;;;;;;;11.68;8.98;;;14.90;99.90;;;;;;5060533;28;20041;-75
2022/08/19 02:18:44;;;;;;;11.80;8.50;;;14.80;99.90;;;;;;5062455;28;20123;-76
2022/08/19 02:21:10;;;;;;;13.90;8.88;;;14.90;99.90;;;;;;5045246;28;22131;-75
2022/08/19 02:23:36;;;;;;;10.60;9.25;;;14.90;99.90;;;;;;5066448;28;20114;-76
2022/08/19 02:26:02;;;;;;;13.57;9.77;;;14.80;99.90;;;;;;5063966;28;20494;-76
2022/08/19 02:28:28;;;;;;;9.88;8.40;;;14.70;99.90;;;;;;5064688;28;20067;-75
2022/08/19 02:30:53;;;;;;;11.70;10.40;;;14.80;99.90;;;;;;5062780;28;20044;-76
2022/08/19 02:33:19;;;;;;;10.77;9.68;;;14.70;99.90;;;;;;5061649;28;20498;-76
2022/08/19 02:35:46;;;;;;;11.70;10.20;;;14.80;99.90;;;;;;5063710;28;20087;-75
2022/08/19 02:41:12;;;;;;;10.55;8.32;;;14.70;99.90;;;;;;5030282;28;20090;-75
2022/08/19 02:43:40;;;;;;;12.15;9.45;;;14.70;99.90;;;;;;5063241;28;20104;-75
2022/08/19 02:46:26;;;;;;;13.48;9.45;;;14.60;99.90;;;;;;5061499;28;20097;-75
2022/08/19 02:48:54;;;;;;;28.13;11.18;;;14.50;99.90;;;;;;5063288;28;20051;-74
2022/08/19 02:51:41;;;;;;;12.25;10.65;;;14.60;99.90;;;;;;5060279;28;20094;-76
2022/08/19 02:54:08;;;;;;;15.48;10.75;;;14.70;99.90;;;;;;5064589;28;20407;-75
2022/08/19 02:56:36;;;;;;;11.27;9.35;;;14.70;99.90;;;;;;5063855;28;20394;-75
2022/08/19 02:59:05;;;;;;;12.95;10.95;;;14.50;99.90;;;;;;5064624;28;20039;-76
2022/08/19 03:01:32;;;;;;;18.10;11.70;;;14.60;99.90;;;;;;5061853;28;20048;-76
2022/08/19 03:03:59;;;;;;;13.45;10.48;;;14.60;99.90;;;;;;5063979;28;20047;-76
2022/08/19 03:06:26;;;;;;;14.85;11.43;;;14.60;99.90;;;;;;5063108;28;20421;-77
2022/08/19 03:08:52;;;;;;;15.00;11.05;;;14.50;99.90;;;;;;5068594;28;20127;-76
2022/08/19 03:11:26;;;;;;;15.32;10.93;;;14.60;99.90;;;;;;5060015;28;20048;-76
2022/08/19 03:13:53;;;;;;;15.32;11.77;;;14.70;99.90;;;;;;5050987;28;20441;-76
2022/08/19 03:16:23;;;;;;;12.02;10.73;;;14.70;99.90;;;;;;5068119;28;20128;-76
2022/08/19 03:18:50;;;;;;;12.35;9.98;;;14.70;99.90;;;;;;5068552;28;20044;-75
2022/08/19 03:21:21;;;;;;;13.88;9.23;;;14.70;99.90;;;;;;5064752;28;20101;-75
2022/08/19 03:23:47;;;;;;;16.10;12.00;;;14.60;99.90;;;;;;5066787;28;20402;-75
2022/08/19 03:26:14;;;;;;;16.92;11.48;;;14.60;99.90;;;;;;5063062;28;20585;-75
2022/08/19 03:28:41;;;;;;;11.48;10.27;;;14.60;99.90;;;;;;5066646;28;20466;-76
2022/08/19 03:31:12;;;;;;;14.18;10.23;;;14.60;99.90;;;;;;5065999;28;20124;-74
2022/08/19 03:33:38;;;;;;;13.00;10.10;;;14.60;99.90;;;;;;5068514;28;20072;-75
2022/08/19 03:36:24;;;;;;;14.68;11.02;;;14.60;99.90;;;;;;5049921;28;20036;-76
2022/08/19 03:38:54;;;;;;;10.57;9.48;;;14.40;99.90;;;;;;5062996;28;20082;-75
2022/08/19 03:41:23;;;;;;;18.92;9.65;;;14.60;99.90;;;;;;5065427;28;20458;-76
2022/08/19 03:43:49;;;;;;;12.35;10.40;;;14.50;99.90;;;;;;5067289;28;20044;-76
2022/08/19 03:46:21;;;;;;;13.52;10.80;;;14.50;99.90;;;;;;5068686;28;20049;-75
2022/08/19 03:48:48;;;;;;;11.57;10.27;;;14.60;99.90;;;;;;5066792;28;20051;-77
2022/08/19 03:51:21;;;;;;;10.88;9.75;;;14.50;99.90;;;;;;5059009;28;20117;-75
2022/08/19 03:53:47;;;;;;;14.10;11.68;;;14.40;99.90;;;;;;5064023;28;20047;-76
2022/08/19 03:56:13;;;;;;;14.85;11.07;;;14.40;99.90;;;;;;5047503;28;20208;-76
2022/08/19 03:58:39;;;;;;;12.48;9.63;;;14.40;99.90;;;;;;5068076;28;20041;-76
2022/08/19 04:01:14;;;;;;;13.02;10.88;;;14.50;99.90;;;;;;5062217;28;20041;-76
2022/08/19 04:03:40;;;;;;;13.48;10.82;;;14.50;99.90;;;;;;5066455;28;20083;-76
2022/08/19 04:06:22;;;;;;;12.18;10.68;;;14.40;99.90;;;;;;5062860;28;20072;-76
2022/08/19 04:08:50;;;;;;;10.30;9.30;;;14.50;99.90;;;;;;5065490;28;20094;-76
2022/08/19 04:11:21;;;;;;;11.90;10.70;;;14.40;99.90;;;;;;5061078;28;20052;-76
2022/08/19 04:13:47;;;;;;;14.65;10.70;;;14.50;99.90;;;;;;5050014;28;20044;-77
2022/08/19 04:16:13;;;;;;;12.05;10.15;;;14.50;99.90;;;;;;5064886;28;20093;-76
2022/08/19 04:18:40;;;;;;;12.75;10.05;;;14.50;99.90;;;;;;5066718;28;20052;-75
2022/08/19 04:21:07;;;;;;;15.05;11.77;;;14.40;99.90;;;;;;5065037;28;20047;-75
2022/08/19 04:23:35;;;;;;;12.00;10.20;;;14.50;99.90;;;;;;5067654;28;20364;-76
2022/08/19 04:26:02;;;;;;;16.20;11.52;;;14.50;99.90;;;;;;5064999;28;20403;-76
2022/08/19 04:28:28;;;;;;;12.32;10.43;;;14.40;99.90;;;;;;5067252;28;20368;-76
2022/08/19 04:30:55;;;;;;;15.40;12.18;;;14.60;99.90;;;;;;5063395;28;20103;-78
2022/08/19 04:33:23;;;;;;;17.15;12.05;;;14.40;99.90;;;;;;5066549;28;20041;-76
2022/08/19 04:35:51;;;;;;;16.38;12.13;;;14.40;99.90;;;;;;5046602;28;20056;-76
2022/08/19 04:38:20;;;;;;;14.77;10.88;;;14.60;99.90;;;;;;5047746;28;20070;-75
2022/08/19 04:43:37;;;;;;;15.10;10.87;;;14.50;99.90;;;;;;5063457;28;20080;-75
2022/08/19 04:46:11;;;;;;;15.40;11.55;;;14.50;99.90;;;;;;5060401;28;20094;-76
2022/08/19 04:48:38;;;;;;;15.25;11.70;;;14.50;99.90;;;;;;5059477;28;20032;-75
2022/08/19 04:51:12;;;;;;;14.25;10.73;;;14.50;99.90;;;;;;5043299;28;20136;-75
2022/08/19 04:53:39;;;;;;;13.85;10.07;;;14.50;99.90;;;;;;5060924;28;20041;-76
2022/08/19 04:56:08;;;;;;;11.23;9.98;;;14.40;99.90;;;;;;5041787;28;20049;-77
2022/08/19 04:58:35;;;;;;;16.95;11.20;;;14.50;99.90;;;;;;5055300;28;20047;-76
2022/08/19 05:01:01;;;;;;;16.27;12.10;;;14.50;99.90;;;;;;5065573;28;20112;-75
2022/08/19 05:03:27;;;;;;;17.25;12.40;;;14.60;99.90;;;;;;5031453;28;20143;-76
2022/08/19 05:05:52;;;;;;;13.43;10.35;;;14.70;99.90;;;;;;5046683;28;20048;-77
2022/08/19 05:08:21;;;;;;;13.43;12.07;;;14.70;99.90;;;;;;5062500;28;20045;-74
2022/08/19 05:10:48;;;;;;;16.13;11.68;;;14.70;99.90;;;;;;5030676;28;20102;-75
2022/08/19 05:13:16;;;;;;;21.63;12.07;;;14.70;99.90;;;;;;5064645;28;20079;-75
2022/08/19 05:15:42;;;;;;;15.15;11.38;;;14.70;99.90;;;;;;5046312;28;20035;-75
2022/08/19 05:23:36;;;;;;;13.48;10.70;;;14.50;99.90;;;;;;5064414;28;20453;-75
2022/08/19 05:26:01;;;;;;;13.02;11.07;;;14.70;99.90;;;;;;5045400;28;20041;-75
2022/08/19 05:28:27;;;;;;;15.50;11.30;;;14.70;99.90;;;;;;5064366;28;20036;-75
2022/08/19 05:30:55;;;;;;;14.80;11.55;;;14.80;99.90;;;;;;5064843;28;20697;-76
2022/08/19 05:33:21;;;;;;;12.25;10.75;;;14.80;99.90;;;;;;5065739;28;20036;-78
2022/08/19 05:35:49;;;;;;;14.93;12.98;;;14.70;99.90;;;;;;5063096;28;20052;-80
2022/08/19 05:38:15;;;;;;;18.33;12.15;;;14.90;99.90;;;;;;5043187;28;20429;-80
2022/08/19 05:40:45;;;;;;;15.30;11.93;;;14.80;99.90;;;;;;5061022;28;20040;-80
2022/08/19 05:43:11;;;;;;;14.10;11.52;;;14.90;99.90;;;;;;5064906;28;20625;-81
2022/08/19 05:45:41;;;;;;;15.35;12.00;;;15.00;99.90;;;;;;5064749;28;20123;-80
2022/08/19 05:48:10;;;;;;;14.55;12.30;;;15.10;99.90;;;;;;5052613;28;20055;-81
2022/08/19 05:50:37;;;;;;;14.07;12.15;;;15.00;99.90;;;;;;5061508;28;20567;-80
2022/08/19 05:53:03;;;;;;;16.95;13.10;;;15.20;99.90;;;;;;5064759;28;20443;-80
2022/08/19 05:55:29;;;;;;;17.75;13.70;;;15.20;99.90;;;;;;5047061;28;20123;-80
2022/08/19 05:57:55;;;;;;;19.48;12.75;;;15.30;99.90;;;;;;5061062;28;20136;-80
2022/08/19 06:00:20;;;;;;;19.52;14.65;;;15.40;99.90;;;;;;5058304;28;20453;-80
2022/08/19 06:02:46;;;;;;;17.70;13.13;;;15.30;99.90;;;;;;5046365;28;20083;-79
2022/08/19 06:05:12;;;;;;;21.67;13.27;;;15.60;99.90;;;;;;5046491;28;20570;-79
2022/08/19 06:07:39;;;;;;;18.38;14.20;;;15.60;99.90;;;;;;5063415;28;20044;-79
2022/08/19 06:10:07;;;;;;;16.80;13.82;;;15.70;99.90;;;;;;5043614;28;20048;-79
2022/08/19 06:12:34;;;;;;;14.68;12.90;;;15.80;99.90;;;;;;5066745;28;20049;-80
2022/08/19 06:15:08;;;;;;;18.38;13.32;;;15.70;99.90;;;;;;5043315;28;20056;-80
2022/08/19 06:17:34;;;;;;;17.30;12.30;;;16.00;99.90;;;;;;5045773;28;20464;-78
2022/08/19 06:20:01;;;;;;;16.42;13.27;;;16.20;99.90;;;;;;5059381;28;20044;-79
2022/08/19 06:22:27;;;;;;;14.80;12.55;;;16.20;99.90;;;;;;5050583;28;20477;-80
2022/08/19 06:24:54;;;;;;;18.65;13.20;;;16.30;99.90;;;;;;5030180;28;20048;-79
2022/08/19 06:27:20;;;;;;;16.15;13.52;;;16.40;99.90;;;;;;5049240;28;20092;-80
2022/08/19 06:29:46;;;;;;;18.77;15.07;;;16.50;99.90;;;;;;5045886;28;20041;-80
2022/08/19 06:32:16;;;;;;;14.25;12.70;;;16.50;99.90;;;;;;5049845;28;20098;-81
2022/08/19 06:34:41;;;;;;;17.60;14.43;;;16.80;99.90;;;;;;5060952;28;20047;-81
2022/08/19 06:37:07;;;;;;;17.15;13.52;;;16.80;99.90;;;;;;5063457;28;20302;-81
2022/08/19 06:39:38;;;;;;;19.67;13.80;;;16.80;99.90;;;;;;5066295;28;20044;-82
2022/08/19 06:42:06;;;;;;;19.92;15.18;;;16.90;99.90;;;;;;5051104;28;20052;-82
2022/08/19 06:44:36;;;;;;;18.65;14.63;;;17.10;99.90;;;;;;5069560;28;20048;-81
2022/08/19 06:47:07;;;;;;;17.90;14.00;;;17.00;99.90;;;;;;5066090;28;20036;-81
2022/08/19 06:49:34;;;;;;;15.75;14.13;;;17.20;99.90;;;;;;5068092;28;20515;-81
2022/08/19 06:52:00;;;;;;;23.17;16.13;;;17.20;99.90;;;;;;5069821;28;20136;-82
2022/08/19 06:54:29;;;;;;;17.33;14.85;;;17.30;99.90;;;;;;5068839;28;20045;-80
2022/08/19 06:56:56;;;;;;;17.17;14.90;;;17.40;99.90;;;;;;5050600;28;20052;-81
2022/08/19 06:59:27;;;;;;;18.92;15.70;;;17.60;99.90;;;;;;5067811;28;20040;-79
2022/08/19 07:01:55;;;;;;;17.60;15.70;;;17.80;99.90;;;;;;5065370;28;20048;-80
2022/08/19 07:04:23;;;;;;;19.20;15.93;;;18.00;99.90;;;;;;5058930;28;20082;-81
2022/08/19 07:06:55;;;;;;;20.35;16.10;;;18.20;99.90;;;;;;5067955;28;20039;-81
2022/08/19 07:09:21;;;;;;;17.80;15.32;;;18.10;99.90;;;;;;5060285;28;20039;-84
2022/08/19 07:11:49;;;;;;;18.08;15.25;;;19.40;99.90;;;;;;5066596;28;20135;-83
2022/08/19 07:14:18;;;;;;;20.20;14.95;;;20.80;99.90;;;;;;5067635;28;20040;-83
2022/08/19 07:16:45;;;;;;;16.05;13.70;;;21.70;99.90;;;;;;5068157;28;20060;-83
2022/08/19 07:19:11;;;;;;;15.68;14.07;;;22.20;99.90;;;;;;5067334;28;20066;-84
2022/08/19 07:21:37;;;;;;;17.10;15.48;;;22.80;99.90;;;;;;5069289;28;20405;-76
2022/08/19 07:24:03;;;;;;;14.02;12.60;;;22.30;99.90;;;;;;5067390;28;20043;-83
2022/08/19 07:26:33;;;;;;;16.67;13.38;;;21.00;99.90;;;;;;5049468;28;20036;-81
2022/08/19 07:29:00;;;;;;;16.83;12.93;;;20.60;99.90;;;;;;5068520;28;20071;-81
2022/08/19 07:31:28;;;;;;;17.15;14.13;;;20.40;99.90;;;;;;5048089;28;20063;-80
2022/08/19 07:33:55;;;;;;;17.23;12.45;;;20.10;99.90;;;;;;5067253;28;20044;-81
2022/08/19 07:36:32;;;;;;;15.40;13.65;;;20.30;99.90;;;;;;5063611;28;20457;-81
2022/08/19 07:39:00;;;;;;;14.55;12.43;;;20.10;99.90;;;;;;5067401;28;20036;-81
2022/08/19 07:41:28;;;;;;;13.95;12.63;;;20.10;99.90;;;;;;5068832;28;20052;-80
2022/08/19 07:43:54;;;;;;;14.93;11.63;;;20.20;99.90;;;;;;5066882;28;20098;-80
2022/08/19 07:46:20;;;;;;;13.20;11.80;;;20.20;99.90;;;;;;5065912;28;20037;-80
2022/08/19 07:48:49;;;;;;;12.10;10.82;;;20.40;99.90;;;;;;5062318;28;20084;-80
2022/08/19 07:51:18;;;;;;;13.20;12.00;;;20.40;99.90;;;;;;5068090;28;20060;-80
2022/08/19 07:53:45;;;;;;;14.23;12.82;;;20.50;99.90;;;;;;5065747;28;20110;-79
2022/08/19 07:56:12;;;;;;;13.27;11.60;;;20.60;99.90;;;;;;5066640;28;20044;-79
2022/08/19 07:58:41;;;;;;;12.35;11.00;;;20.70;99.90;;;;;;5042003;28;20085;-79
2022/08/19 08:01:10;;;;;;;14.37;12.90;;;20.90;99.90;;;;;;5048657;28;20048;-79
2022/08/19 08:09:17;;;;;;;16.10;13.30;;;21.00;99.90;;;;;;5064509;28;20040;-76
2022/08/19 08:11:56;;;;;;;13.98;12.57;;;21.20;99.90;;;;;;5048997;28;20127;-77
2022/08/19 08:14:35;;;;;;;15.52;13.57;;;21.30;99.90;;;;;;5068032;28;20040;-79
2022/08/19 08:17:01;;;;;;;15.60;14.10;;;21.40;99.90;;;;;;5068043;28;20040;-78
2022/08/19 08:19:28;;;;;;;14.98;13.40;;;21.40;99.90;;;;;;5063286;28;20052;-78
2022/08/19 08:21:56;;;;;;;16.42;13.65;;;21.50;99.90;;;;;;5055513;28;20051;-79
2022/08/19 08:24:21;;;;;;;17.50;13.35;;;21.60;99.90;;;;;;5067165;28;20041;-78
2022/08/19 08:26:47;;;;;;;18.08;13.63;;;21.80;99.90;;;;;;5048699;28;20549;-79
2022/08/19 08:29:15;;;;;;;16.17;12.52;;;21.90;99.90;;;;;;5048428;28;20039;-77
2022/08/19 08:31:43;;;;;;;14.07;12.57;;;21.90;99.90;;;;;;5040387;28;20048;-77
2022/08/19 08:34:10;;;;;;;14.45;12.98;;;22.00;99.90;;;;;;5065289;28;20127;-79
2022/08/19 08:36:41;;;;;;;14.93;13.07;;;22.00;99.90;;;;;;5066791;28;20032;-78
2022/08/19 08:39:10;;;;;;;16.05;14.05;;;22.10;99.90;;;;;;5063262;28;20115;-79
2022/08/19 08:41:46;;;;;;;14.65;13.25;;;22.10;99.90;;;;;;5066420;28;20040;-78
2022/08/19 08:44:22;;;;;;;14.25;12.85;;;22.10;99.90;;;;;;5044598;28;20461;-78
2022/08/19 08:46:53;;;;;;;16.92;13.02;;;22.30;99.90;;;;;;5065913;28;20106;-78
2022/08/19 08:49:28;;;;;;;14.02;11.60;;;22.20;99.90;;;;;;5037116;28;20049;-77
2022/08/19 08:52:28;;;;;;;13.68;12.38;;;22.30;99.90;;;;;;5055507;28;20048;-78
2022/08/19 08:54:57;;;;;;;13.18;11.90;;;22.40;99.90;;;;;;5048745;28;20482;-77
2022/08/19 08:57:38;;;;;;;14.65;12.60;;;22.50;99.90;;;;;;5049232;28;20041;-73
2022/08/19 09:00:10;;;;;;;14.15;12.70;;;22.60;99.90;;;;;;5066546;28;20510;-74
2022/08/19 09:02:35;;;;;;;20.25;15.25;;;22.60;99.90;;;;;;5054581;28;20053;-74
2022/08/19 09:05:01;;;;;;;15.15;13.75;;;22.60;99.90;;;;;;5060965;28;20115;-72
2022/08/19 09:08:06;;;;;;;16.17;13.55;;;22.80;99.90;;;;;;5066102;28;20041;-72
2022/08/19 09:10:48;;;;;;;15.68;14.02;;;22.80;99.90;;;;;;4968422;28;20405;-71
2022/08/19 09:13:34;;;;;;;18.50;14.10;;;22.90;99.90;;;;;;5058192;28;20048;-72
2022/08/19 09:16:10;;;;;;;17.20;15.13;;;22.80;99.90;;;;;;5046296;28;20055;-71
2022/08/19 09:18:41;;;;;;;15.70;14.10;;;23.00;99.90;;;;;;5063277;28;20044;-72
2022/08/19 09:21:08;;;;;;;17.00;15.25;;;23.00;99.90;;;;;;5045813;28;20044;-72
2022/08/19 09:23:35;;;;;;;16.88;15.07;;;23.10;99.90;;;;;;5036881;28;20383;-71
2022/08/19 09:26:00;;;;;;;21.90;19.60;;;23.20;99.90;;;;;;5060392;28;20191;-72
2022/08/19 09:28:27;;;;;;;19.40;17.50;;;23.00;99.90;;;;;;5044089;28;20443;-72
2022/08/19 09:30:53;;;;;;;19.75;17.92;;;23.00;99.90;;;;;;5064419;28;20043;-72
2022/08/19 09:33:19;;;;;;;20.70;18.05;;;23.10;99.90;;;;;;5063926;28;20123;-73
2022/08/19 09:35:46;;;;;;;19.83;17.40;;;23.20;99.90;;;;;;5048450;28;20056;-72
2022/08/19 09:38:11;;;;;;;18.65;16.75;;;23.40;99.90;;;;;;5061710;28;20430;-73
2022/08/19 09:40:37;;;;;;;20.92;18.83;;;23.60;99.90;;;;;;5061097;28;20044;-72
2022/08/19 09:43:03;;;;;;;17.17;15.38;;;23.60;99.90;;;;;;5047636;28;20138;-72
2022/08/19 09:45:28;;;;;;;18.50;16.70;;;23.70;99.90;;;;;;5046974;28;20040;-73
2022/08/19 09:47:54;;;;;;;18.65;16.77;;;23.70;99.90;;;;;;5063892;28;20040;-73
2022/08/19 09:50:21;;;;;;;18.75;16.75;;;23.90;99.90;;;;;;5064902;28;20073;-76
2022/08/19 09:52:46;;;;;;;21.60;19.50;;;24.00;99.90;;;;;;5063029;28;20056;-76
2022/08/19 09:55:12;;;;;;;22.00;19.77;;;24.00;99.90;;;;;;5037932;28;20048;-76
2022/08/19 09:57:38;;;;;;;20.45;18.30;;;24.10;99.90;;;;;;5036274;28;20036;-77
2022/08/19 10:00:08;;;;;;;19.85;17.90;;;24.20;99.90;;;;;;5065462;28;20458;-76
2022/08/19 10:02:35;;;;;;;21.88;19.52;;;24.20;99.90;;;;;;5065368;28;20036;-76
2022/08/19 10:07:45;;;;;;;20.30;18.10;;;24.30;99.90;;;;;;5054319;28;20044;-75
2022/08/19 10:10:11;;;;;;;15.80;14.20;;;24.30;99.90;;;;;;5062399;28;20040;-76
2022/08/19 10:12:36;;;;;;;15.98;14.00;;;24.40;99.90;;;;;;5065991;28;20045;-76
2022/08/19 10:15:05;;;;;;;13.85;12.25;;;24.50;99.90;;;;;;5067408;28;20032;-76
2022/08/19 10:17:33;;;;;;;22.60;15.52;;;24.30;99.90;;;;;;5069866;28;20048;-75
2022/08/19 10:19:59;;;;;;;20.85;16.02;;;24.30;99.90;;;;;;5068459;28;20087;-76
2022/08/19 10:22:25;;;;;;;23.02;15.02;;;24.20;99.90;;;;;;5066959;28;20125;-78
2022/08/19 10:24:52;;;;;;;15.93;14.43;;;24.30;99.90;;;;;;5049961;28;20044;-77
2022/08/19 10:27:17;;;;;;;16.02;12.63;;;24.60;99.90;;;;;;5046987;28;20053;-73
2022/08/19 10:29:43;;;;;;;15.90;12.27;;;24.60;99.90;;;;;;5070184;28;20036;-78
2022/08/19 10:32:09;;;;;;;17.17;15.38;;;24.70;99.90;;;;;;5069470;28;20109;-74
2022/08/19 10:34:37;;;;;;;17.73;15.15;;;24.80;99.90;;;;;;5066856;28;20128;-74
2022/08/19 10:37:07;;;;;;;13.27;11.93;;;24.40;99.90;;;;;;5059070;28;20094;-72
2022/08/19 10:39:34;;;;;;;;;;;24.20;99.90;;;;;;5069592;28;20032;-73
2022/08/19 10:42:05;;;;;;;18.92;14.55;;;24.30;99.90;;;;;;5062332;28;20282;-73
2022/08/19 10:44:32;;;;;;;20.48;13.25;;;24.50;99.90;;;;;;5068401;28;20055;-72
2022/08/19 10:46:59;;;;;;;17.63;13.95;;;24.50;99.90;;;;;;5067271;28;20040;-73
2022/08/19 10:49:25;;;;;;;14.63;13.15;;;24.40;99.90;;;;;;5064927;28;20155;-73
2022/08/19 10:57:19;;;;;;;17.13;13.98;;;23.90;99.90;;;;;;5061936;28;20044;-73
2022/08/19 10:59:45;;;;;;;18.90;14.13;;;23.80;99.90;;;;;;5065608;28;20063;-73
2022/08/19 11:02:11;;;;;;;18.42;13.52;;;23.50;99.90;;;;;;5063399;28;20044;-73
2022/08/19 11:04:38;;;;;;;15.65;11.80;;;23.60;99.90;;;;;;5050245;28;20044;-72
2022/08/19 11:07:06;;;;;;;10.70;9.60;;;23.70;99.90;;;;;;5067308;28;20036;-73
2022/08/19 11:09:38;;;;;;;15.55;10.63;;;23.60;99.90;;;;;;5067751;28;20040;-72
2022/08/19 11:12:04;;;;;;;11.93;10.82;;;23.70;99.90;;;;;;5068539;28;20131;-73
2022/08/19 11:14:32;;;;;;;17.50;13.85;;;23.90;99.90;;;;;;5067392;28;20136;-78
2022/08/19 11:16:58;;;;;;;13.52;12.13;;;24.20;99.90;;;;;;5067692;28;20119;-81
2022/08/19 11:19:24;;;;;;;13.63;11.88;;;24.60;99.90;;;;;;5066780;28;20116;-74
2022/08/19 11:21:51;;;;;;;11.57;9.68;;;24.70;99.90;;;;;;5041847;28;20048;-76
2022/08/19 11:24:23;;;;;;;9.88;7.68;;;24.90;99.90;;;;;;5065184;28;20540;-76
2022/08/19 11:26:51;;;;;;;8.65;7.68;;;25.20;99.90;;;;;;5063784;28;20579;-77
2022/08/19 11:29:20;;;;;;;10.50;8.80;;;25.40;99.90;;;;;;5055402;28;20179;-76
2022/08/19 11:31:48;;;;;;;18.08;11.00;;;25.40;99.90;;;;;;5065970;28;20048;-77
2022/08/19 11:34:18;;;;;;;12.55;9.65;;;25.20;99.90;;;;;;5049005;28;20399;-76
2022/08/19 11:36:46;;;;;;;12.35;9.55;;;24.80;99.90;;;;;;5067614;28;20101;-76
2022/08/19 11:39:22;;;;;;;13.32;10.63;;;24.90;99.90;;;;;;5032720;28;20043;-76
2022/08/19 11:41:47;;;;;;;10.98;9.70;;;24.80;99.90;;;;;;5068437;28;20076;-76
2022/08/19 11:44:14;;;;;;;12.40;10.02;;;24.80;99.90;;;;;;5062830;28;20048;-76
2022/08/19 11:46:45;;;;;;;15.93;9.95;;;25.10;99.90;;;;;;5049824;28;20132;-76
2022/08/19 11:49:10;;;;;;;11.38;10.02;;;25.10;99.90;;;;;;5066406;28;20053;-76
2022/08/19 11:51:36;;;;;;;15.25;11.73;;;25.10;99.90;;;;;;5068123;28;20052;-76
2022/08/19 11:54:05;;;;;;;16.50;12.07;;;25.00;99.90;;;;;;5068143;28;20052;-75
2022/08/19 11:56:31;;;;;;;16.77;12.75;;;24.70;99.90;;;;;;5033961;28;20040;-75
2022/08/19 11:58:56;;;;;;;12.30;11.10;;;24.50;99.90;;;;;;5044951;28;20037;-75
2022/08/19 12:01:24;;;;;;;17.23;13.35;;;24.40;99.90;;;;;;5066747;28;20063;-75
2022/08/19 12:03:52;;;;;;;16.65;13.90;;;24.40;99.90;;;;;;5065912;28;20036;-75
2022/08/19 12:06:25;;;;;;;14.48;12.95;;;24.20;99.90;;;;;;5048211;28;20045;-75
2022/08/19 12:08:51;;;;;;;13.60;11.82;;;24.00;99.90;;;;;;5047671;28;20072;-75
2022/08/19 12:11:17;;;;;;;19.23;14.07;;;24.00;99.90;;;;;;5067475;28;20040;-75
2022/08/19 12:13:47;;;;;;;17.25;14.82;;;23.90;99.90;;;;;;5067714;28;20041;-75
2022/08/19 12:16:18;;;;;;;18.65;14.57;;;23.90;99.90;;;;;;5048877;28;20098;-75
2022/08/19 12:18:47;;;;;;;17.27;15.48;;;23.90;99.90;;;;;;5061584;28;20041;-74
2022/08/19 12:21:15;;;;;;;18.55;15.25;;;23.80;99.90;;;;;;5063305;28;20032;-75
2022/08/19 12:23:43;;;;;;;24.60;18.05;;;23.80;99.90;;;;;;5065399;28;20036;-74
2022/08/19 12:26:10;;;;;;;25.95;17.27;;;23.80;99.90;;;;;;5066969;28;20032;-75
2022/08/19 12:28:36;;;;;;;20.63;16.35;;;23.80;99.90;;;;;;5065247;28;20054;-75
2022/08/19 12:31:02;;;;;;;22.67;18.52;;;23.80;99.90;;;;;;5066485;28;20036;-74
2022/08/19 12:33:28;;;;;;;21.95;18.63;;;23.80;99.90;;;;;;5066734;28;20041;-75
2022/08/19 12:35:54;;;;;;;23.98;19.75;;;23.90;99.90;;;;;;5064802;28;20085;-75
2022/08/19 12:38:23;;;;;;;22.33;18.52;;;23.80;99.90;;;;;;5064385;28;20081;-75
2022/08/19 12:40:51;;;;;;;24.70;20.00;;;23.80;99.90;;;;;;5066375;28;20044;-75
2022/08/19 12:43:19;;;;;;;22.52;16.52;;;23.60;99.90;;;;;;5065820;28;20041;-75
2022/08/19 12:45:45;;;;;;;18.00;12.15;;;23.70;99.90;;;;;;5067289;28;20054;-76
2022/08/19 12:48:12;;;;;;;18.05;14.32;;;23.50;99.90;;;;;;5061576;28;20048;-75
2022/08/19 12:50:42;;;;;;;23.27;17.15;;;23.50;99.90;;;;;;5065603;28;20829;-75
2022/08/19 12:53:09;;;;;;;21.73;16.65;;;23.50;99.90;;;;;;5066813;28;20426;-75
2022/08/19 12:55:34;;;;;;;19.73;14.68;;;23.30;99.90;;;;;;5048187;28;20045;-76
2022/08/19 12:58:03;;;;;;;17.58;13.77;;;23.30;99.90;;;;;;5047044;28;20064;-75
2022/08/19 13:00:29;;;;;;;18.42;13.52;;;23.20;99.90;;;;;;5065967;28;20033;-75